Time;durP1;ratioP1;P1;durP2;ratioP2;P2;SDS_P1;SDS_P2;PMS_P1;PMS_P2;Temp;Humidity;BMP_temperature;BMP_pressure;BME280_temperature;BME280_humidity;BME280_pressure;Samples;Min_cycle;Max_cycle;Signal;HPM_P1;HPM_P2
2022/04/18 00:01:49;;;;;;;16.00;15.20;;;9.60;25.20;;;;;;4953278;28;20172;-80
2022/04/18 00:04:15;;;;;;;15.00;14.37;;;9.50;25.60;;;;;;4953001;28;20263;-80
2022/04/18 00:06:41;;;;;;;14.60;13.77;;;9.40;26.10;;;;;;4953273;28;20502;-80
2022/04/18 00:09:06;;;;;;;14.93;14.43;;;9.20;26.60;;;;;;4952281;28;20278;-80
2022/04/18 00:11:32;;;;;;;15.13;14.40;;;9.20;26.80;;;;;;4953765;28;20190;-80
2022/04/18 00:13:58;;;;;;;14.37;13.87;;;9.30;27.10;;;;;;4952739;28;20550;-81
2022/04/18 00:16:24;;;;;;;15.40;14.67;;;9.30;27.50;;;;;;4952475;28;20179;-80
2022/04/18 00:18:51;;;;;;;16.27;15.00;;;9.20;27.10;;;;;;4952541;28;20206;-81
2022/04/18 00:21:16;;;;;;;15.10;14.40;;;9.20;27.70;;;;;;4968817;28;20443;-81
2022/04/18 00:23:43;;;;;;;15.27;14.43;;;9.20;27.60;;;;;;4952072;28;20462;-81
2022/04/18 00:26:08;;;;;;;15.80;15.10;;;9.20;27.50;;;;;;4952944;28;20196;-81
2022/04/18 00:28:34;;;;;;;15.40;14.73;;;9.20;27.50;;;;;;4952397;28;20423;-80
2022/04/18 00:31:00;;;;;;;16.20;15.50;;;9.20;27.00;;;;;;4952124;28;20527;-80
2022/04/18 00:33:26;;;;;;;15.00;14.37;;;9.20;27.20;;;;;;4952086;28;20207;-80
2022/04/18 00:35:55;;;;;;;15.63;14.93;;;9.20;27.30;;;;;;4952171;28;20180;-80
2022/04/18 00:38:21;;;;;;;16.03;15.23;;;9.10;27.00;;;;;;4951835;28;20463;-80
2022/04/18 00:40:47;;;;;;;15.10;14.40;;;9.20;26.90;;;;;;4952545;28;20426;-80
2022/04/18 00:43:13;;;;;;;14.93;14.23;;;9.10;27.40;;;;;;4953099;28;20415;-80
2022/04/18 00:45:39;;;;;;;15.43;14.73;;;9.00;27.80;;;;;;4952523;28;20187;-83
2022/04/18 00:48:04;;;;;;;15.37;14.77;;;9.00;27.80;;;;;;4951948;29;20629;-80
2022/04/18 00:50:33;;;;;;;16.43;15.13;;;9.00;27.90;;;;;;4951355;28;20179;-83
2022/04/18 00:52:58;;;;;;;15.50;14.80;;;8.90;28.50;;;;;;4952153;28;20221;-81
2022/04/18 00:55:26;;;;;;;17.70;16.83;;;8.80;29.30;;;;;;4951195;28;21004;-80
2022/04/18 00:57:53;;;;;;;15.93;15.23;;;8.80;29.30;;;;;;4951889;28;20575;-80
2022/04/18 01:00:19;;;;;;;17.37;16.57;;;8.80;29.00;;;;;;4951011;28;20892;-80
2022/04/18 01:02:45;;;;;;;17.37;16.57;;;8.80;29.10;;;;;;4951356;28;20470;-80
2022/04/18 01:05:11;;;;;;;16.63;15.77;;;8.70;29.30;;;;;;4951028;28;20180;-80
2022/04/18 01:07:38;;;;;;;17.53;16.73;;;8.70;30.10;;;;;;4951351;28;20415;-80
2022/04/18 01:10:08;;;;;;;17.63;16.93;;;8.60;29.80;;;;;;4951185;28;20867;-80
2022/04/18 01:12:34;;;;;;;16.83;16.07;;;8.60;29.20;;;;;;4952650;28;20454;-80
2022/04/18 01:15:00;;;;;;;17.10;16.30;;;8.80;29.00;;;;;;4951694;28;20438;-80
2022/04/18 01:17:27;;;;;;;17.00;16.00;;;8.70;29.20;;;;;;4950935;28;21048;-80
2022/04/18 01:19:53;;;;;;;16.80;15.90;;;8.60;29.80;;;;;;4951415;28;20780;-80
2022/04/18 01:22:19;;;;;;;16.77;15.47;;;8.60;29.70;;;;;;4951446;28;20505;-80
2022/04/18 01:30:15;;;;;;;16.77;16.00;;;8.50;29.90;;;;;;4953373;29;20458;-80
2022/04/18 01:32:42;;;;;;;16.83;16.10;;;8.50;29.70;;;;;;4951149;28;20419;-79
2022/04/18 01:35:09;;;;;;;18.10;17.20;;;8.50;30.00;;;;;;4950117;28;20427;-80
2022/04/18 01:37:36;;;;;;;17.20;16.30;;;8.50;29.30;;;;;;4951444;28;20637;-80
2022/04/18 01:40:05;;;;;;;17.27;16.40;;;8.40;29.90;;;;;;4952237;28;20421;-84
2022/04/18 01:42:30;;;;;;;16.37;15.67;;;8.40;30.30;;;;;;4952363;28;20417;-81
2022/04/18 01:44:57;;;;;;;17.33;16.60;;;8.40;30.50;;;;;;4951835;28;20508;-80
2022/04/18 01:47:24;;;;;;;17.10;16.20;;;8.40;30.80;;;;;;4951795;28;20619;-80
2022/04/18 01:49:51;;;;;;;16.77;15.90;;;8.30;30.70;;;;;;4951852;28;20818;-80
2022/04/18 01:52:17;;;;;;;16.53;15.63;;;8.30;31.00;;;;;;4952200;28;20967;-81
2022/04/18 01:54:42;;;;;;;16.77;16.07;;;8.30;30.60;;;;;;4953119;28;20411;-83
2022/04/18 01:57:08;;;;;;;17.23;16.37;;;8.30;31.00;;;;;;4953573;28;20183;-83
2022/04/18 01:59:34;;;;;;;17.70;16.80;;;8.20;31.00;;;;;;4953746;28;20518;-80
2022/04/18 02:02:08;;;;;;;17.73;16.83;;;8.20;31.00;;;;;;4952910;28;20238;-80
2022/04/18 02:04:34;;;;;;;17.20;16.30;;;8.20;31.00;;;;;;4949316;28;20182;-79
2022/04/18 02:07:00;;;;;;;17.40;16.60;;;8.10;31.10;;;;;;4949184;28;20415;-79
2022/04/18 02:09:26;;;;;;;17.63;16.73;;;8.10;30.90;;;;;;4966209;28;20626;-79
2022/04/18 02:11:51;;;;;;;17.30;16.40;;;8.10;31.60;;;;;;4949913;28;20182;-79
2022/04/18 02:14:17;;;;;;;17.40;16.70;;;8.00;32.00;;;;;;4949585;28;20175;-80
2022/04/18 02:16:43;;;;;;;18.50;17.57;;;7.90;31.70;;;;;;4950201;28;20172;-81
2022/04/18 02:19:09;;;;;;;16.83;16.03;;;7.80;32.30;;;;;;4949995;28;20805;-81
2022/04/18 02:21:34;;;;;;;19.27;18.20;;;7.80;32.40;;;;;;4950290;28;20632;-80
2022/04/18 02:24:00;;;;;;;17.80;17.03;;;7.80;31.90;;;;;;4949779;28;20171;-80
2022/04/18 02:26:26;;;;;;;17.10;16.33;;;7.80;32.60;;;;;;4965962;28;20194;-80
2022/04/18 02:28:51;;;;;;;16.97;16.17;;;7.70;32.80;;;;;;4950252;28;20182;-80
2022/04/18 02:31:17;;;;;;;17.00;16.20;;;7.60;33.50;;;;;;4949684;28;20537;-80
2022/04/18 02:33:42;;;;;;;17.43;16.37;;;7.60;33.50;;;;;;4949709;28;20194;-80
2022/04/18 02:36:08;;;;;;;18.07;17.27;;;7.60;33.20;;;;;;4949606;28;20187;-80
2022/04/18 02:38:34;;;;;;;17.40;16.60;;;7.80;32.30;;;;;;4949418;28;20218;-80
2022/04/18 02:40:59;;;;;;;18.00;17.20;;;7.80;32.80;;;;;;4949613;28;20182;-80
2022/04/18 02:43:25;;;;;;;17.80;17.00;;;7.80;32.60;;;;;;4949537;28;20202;-80
2022/04/18 02:45:51;;;;;;;17.57;16.77;;;7.80;32.60;;;;;;4950406;28;20175;-80
2022/04/18 02:48:16;;;;;;;18.57;17.27;;;7.80;32.40;;;;;;4953988;28;20270;-80
2022/04/18 02:50:42;;;;;;;17.87;17.07;;;7.70;32.90;;;;;;4952960;28;20423;-80
2022/04/18 02:53:08;;;;;;;18.20;17.47;;;7.60;33.10;;;;;;4953550;28;20186;-80
2022/04/18 02:55:34;;;;;;;18.20;17.40;;;7.60;33.90;;;;;;4953286;28;20190;-79
2022/04/18 02:57:59;;;;;;;18.20;17.30;;;7.60;33.00;;;;;;4953330;28;20459;-80
2022/04/18 03:00:25;;;;;;;18.90;18.00;;;7.70;32.70;;;;;;4953365;28;20182;-80
2022/04/18 03:02:51;;;;;;;17.33;16.50;;;7.70;32.40;;;;;;4953066;28;20548;-80
2022/04/18 03:05:17;;;;;;;17.70;16.63;;;7.50;33.30;;;;;;4953390;28;20510;-80
2022/04/18 03:07:42;;;;;;;17.47;16.77;;;7.50;33.00;;;;;;4953378;28;20183;-80
2022/04/18 03:10:08;;;;;;;18.40;17.47;;;7.60;33.50;;;;;;4953413;28;20441;-80
2022/04/18 03:12:34;;;;;;;17.70;16.90;;;7.70;33.30;;;;;;4953757;28;20202;-79
2022/04/18 03:15:00;;;;;;;17.57;16.70;;;7.60;33.70;;;;;;4954079;28;20434;-80
2022/04/18 03:17:26;;;;;;;19.10;18.10;;;7.50;33.80;;;;;;4953782;28;20466;-80
2022/04/18 03:19:55;;;;;;;18.03;17.20;;;7.30;34.20;;;;;;4954385;28;20190;-80
2022/04/18 03:22:21;;;;;;;18.40;17.60;;;7.30;33.90;;;;;;4954316;28;20430;-80
2022/04/18 03:24:46;;;;;;;18.40;17.50;;;7.20;34.60;;;;;;4954110;28;20414;-80
2022/04/18 03:27:12;;;;;;;18.20;17.40;;;7.20;35.10;;;;;;4954311;28;20194;-80
2022/04/18 03:29:38;;;;;;;18.73;17.57;;;7.20;35.20;;;;;;4954482;28;20186;-80
2022/04/18 03:32:05;;;;;;;19.77;18.63;;;7.20;35.40;;;;;;4954030;28;20176;-80
2022/04/18 03:34:31;;;;;;;18.10;17.40;;;7.20;35.60;;;;;;4955069;28;20446;-80
2022/04/18 03:39:56;;;;;;;18.67;17.70;;;7.20;35.60;;;;;;4956232;29;20414;-79
2022/04/18 03:42:32;;;;;;;17.93;17.13;;;7.10;36.00;;;;;;4955057;28;20426;-79
2022/04/18 03:45:04;;;;;;;18.23;17.33;;;7.10;35.90;;;;;;4955088;28;20422;-79
2022/04/18 03:47:30;;;;;;;17.20;16.40;;;7.10;36.10;;;;;;4955175;28;20423;-80
2022/04/18 03:49:56;;;;;;;17.53;16.73;;;7.10;35.50;;;;;;4955647;28;20514;-80
2022/04/18 03:52:23;;;;;;;18.30;17.50;;;7.10;36.10;;;;;;4955176;28;20419;-79
2022/04/18 03:54:49;;;;;;;17.47;16.77;;;7.10;36.00;;;;;;4955328;28;20422;-79
2022/04/18 03:57:14;;;;;;;18.20;17.30;;;7.10;35.50;;;;;;4954943;28;20430;-80
2022/04/18 03:59:41;;;;;;;17.33;16.53;;;7.00;35.40;;;;;;4954859;28;20546;-80
2022/04/18 04:02:07;;;;;;;17.83;17.10;;;7.10;35.20;;;;;;4955794;28;20262;-79
2022/04/18 04:04:33;;;;;;;18.30;17.50;;;7.10;35.20;;;;;;4955994;28;20427;-80
2022/04/18 04:06:58;;;;;;;18.23;17.43;;;7.20;34.90;;;;;;4971785;28;21042;-79
2022/04/18 04:09:24;;;;;;;19.53;18.70;;;7.20;35.00;;;;;;4955515;28;20431;-79
2022/04/18 04:11:51;;;;;;;19.07;18.17;;;7.30;35.00;;;;;;4955600;28;20175;-80
2022/04/18 04:14:17;;;;;;;19.37;18.47;;;7.20;35.50;;;;;;4955073;28;20182;-79
2022/04/18 04:16:42;;;;;;;19.00;18.10;;;7.10;35.50;;;;;;4955336;28;20423;-79
2022/04/18 04:19:08;;;;;;;18.73;17.93;;;7.00;36.50;;;;;;4956481;28;20951;-80
2022/04/18 04:21:35;;;;;;;20.63;19.37;;;6.90;36.10;;;;;;4955139;28;20620;-79
2022/04/18 04:24:01;;;;;;;19.37;18.47;;;6.90;36.30;;;;;;4955006;28;20175;-79
2022/04/18 04:26:27;;;;;;;18.90;17.90;;;6.90;36.40;;;;;;4955386;28;20473;-80
2022/04/18 04:28:52;;;;;;;18.17;17.37;;;6.90;36.60;;;;;;4955239;29;20422;-80
2022/04/18 04:31:18;;;;;;;18.77;17.80;;;7.00;36.50;;;;;;4955149;28;20226;-80
2022/04/18 04:33:43;;;;;;;18.43;17.50;;;6.90;36.60;;;;;;4954899;28;20214;-79
2022/04/18 04:36:12;;;;;;;20.30;19.30;;;6.90;36.70;;;;;;4954933;28;20612;-79
2022/04/18 04:38:37;;;;;;;20.17;19.00;;;6.90;36.90;;;;;;4955183;28;20618;-80
2022/04/18 04:41:03;;;;;;;19.97;19.07;;;6.90;37.10;;;;;;4955000;28;20415;-80
2022/04/18 04:43:29;;;;;;;19.67;18.77;;;6.80;37.40;;;;;;4954591;28;20180;-80
2022/04/18 04:45:55;;;;;;;20.13;19.13;;;6.70;38.00;;;;;;4954897;28;20226;-80
2022/04/18 04:48:25;;;;;;;19.03;18.23;;;6.60;38.50;;;;;;4954742;28;20514;-80
2022/04/18 04:50:51;;;;;;;20.83;19.83;;;6.60;38.60;;;;;;4954828;28;20435;-80
2022/04/18 04:53:17;;;;;;;20.90;19.67;;;6.60;38.60;;;;;;4954558;28;20523;-80
2022/04/18 04:55:43;;;;;;;20.20;19.30;;;6.70;38.80;;;;;;4954475;28;20179;-80
2022/04/18 04:58:09;;;;;;;20.70;19.70;;;6.80;39.20;;;;;;4953476;28;20431;-80
2022/04/18 05:00:36;;;;;;;18.33;17.63;;;6.90;38.50;;;;;;4954708;28;20501;-80
2022/04/18 05:03:02;;;;;;;19.40;18.60;;;6.90;38.20;;;;;;4955752;28;20411;-80
2022/04/18 05:05:28;;;;;;;18.97;18.17;;;6.90;38.30;;;;;;4954169;28;20419;-81
2022/04/18 05:07:55;;;;;;;20.03;18.93;;;6.90;38.10;;;;;;4954427;28;20792;-80
2022/04/18 05:10:20;;;;;;;20.07;19.17;;;6.80;36.50;;;;;;4954530;28;20549;-80
2022/04/18 05:12:46;;;;;;;20.50;19.60;;;6.90;37.10;;;;;;4955611;28;20415;-80
2022/04/18 05:15:12;;;;;;;20.70;19.70;;;7.00;37.30;;;;;;4954370;28;20195;-80
2022/04/18 05:17:37;;;;;;;20.70;19.70;;;7.00;36.90;;;;;;4954387;28;20270;-80
2022/04/18 05:20:04;;;;;;;20.17;19.30;;;7.00;37.20;;;;;;4954405;28;20179;-80
2022/04/18 05:22:30;;;;;;;19.90;19.00;;;7.00;37.00;;;;;;4954299;28;20171;-80
2022/04/18 05:24:59;;;;;;;20.33;19.43;;;7.10;37.00;;;;;;4954078;28;20739;-80
2022/04/18 05:27:25;;;;;;;20.87;19.77;;;7.10;36.00;;;;;;4953974;28;20425;-80
2022/04/18 05:29:51;;;;;;;21.17;20.13;;;7.10;36.30;;;;;;4955775;28;20423;-80
2022/04/18 05:32:17;;;;;;;20.57;19.77;;;7.10;37.20;;;;;;4955902;28;20415;-80
2022/04/18 05:34:43;;;;;;;20.43;19.43;;;7.10;37.00;;;;;;4953999;28;20640;-81
2022/04/18 05:37:09;;;;;;;20.07;18.87;;;7.20;36.40;;;;;;4953842;28;20438;-83
2022/04/18 05:39:35;;;;;;;22.27;21.17;;;7.10;36.70;;;;;;4954090;28;20415;-80
2022/04/18 05:42:01;;;;;;;19.33;18.33;;;7.10;37.10;;;;;;4953757;28;20175;-80
2022/04/18 05:44:27;;;;;;;20.83;19.73;;;7.10;35.60;;;;;;4953896;28;20597;-80
2022/04/18 05:46:52;;;;;;;19.33;18.53;;;7.10;37.00;;;;;;4953583;28;20441;-80
2022/04/18 05:49:18;;;;;;;19.47;18.60;;;7.10;36.90;;;;;;4953703;28;20183;-79
2022/04/18 05:51:44;;;;;;;20.00;19.07;;;7.10;35.50;;;;;;4953851;28;20587;-80
2022/04/18 05:54:10;;;;;;;19.87;18.80;;;7.20;35.20;;;;;;4953549;28;20183;-79
2022/04/18 05:56:36;;;;;;;21.10;19.90;;;7.10;36.10;;;;;;4954395;28;20270;-80
2022/04/18 05:59:02;;;;;;;21.43;20.30;;;7.20;35.40;;;;;;4954715;28;20462;-81
2022/04/18 06:01:31;;;;;;;20.57;19.67;;;7.10;35.80;;;;;;4955729;28;20415;-80
2022/04/18 06:04:08;;;;;;;20.50;19.60;;;7.20;36.60;;;;;;4955362;28;20486;-80
2022/04/18 06:06:34;;;;;;;20.20;19.20;;;7.40;36.60;;;;;;4953956;28;20473;-79
2022/04/18 06:09:00;;;;;;;18.83;17.93;;;7.40;36.90;;;;;;4952204;28;20435;-80
2022/04/18 06:11:25;;;;;;;20.17;19.17;;;7.50;36.30;;;;;;4951385;28;20427;-80
2022/04/18 06:13:51;;;;;;;19.73;18.77;;;7.30;33.80;;;;;;4952309;28;20198;-79
2022/04/18 06:16:17;;;;;;;19.20;18.30;;;7.50;34.60;;;;;;4952756;28;20183;-79
2022/04/18 06:18:42;;;;;;;17.53;16.83;;;7.50;32.70;;;;;;4952564;28;20313;-80
2022/04/18 06:21:08;;;;;;;17.93;16.93;;;7.50;33.30;;;;;;4952053;28;20368;-80
2022/04/18 06:23:33;;;;;;;19.53;18.67;;;7.50;34.40;;;;;;4952520;28;20180;-80
2022/04/18 06:25:59;;;;;;;20.50;19.53;;;7.60;34.50;;;;;;4954311;28;20203;-80
2022/04/18 06:28:25;;;;;;;20.57;19.47;;;7.60;34.30;;;;;;4952813;28;20194;-80
2022/04/18 06:30:50;;;;;;;19.40;18.20;;;7.60;33.50;;;;;;4969161;28;20270;-79
2022/04/18 06:33:16;;;;;;;19.43;18.60;;;7.50;33.50;;;;;;4952996;28;20179;-79
2022/04/18 06:35:42;;;;;;;19.30;18.47;;;7.60;35.10;;;;;;4952858;28;20193;-79
2022/04/18 06:38:08;;;;;;;19.50;18.50;;;7.70;34.00;;;;;;4952900;28;20746;-79
2022/04/18 06:40:34;;;;;;;19.90;18.80;;;7.70;34.70;;;;;;4952998;28;20502;-79
2022/04/18 06:42:59;;;;;;;18.10;17.37;;;7.90;33.80;;;;;;4952874;28;21002;-79
2022/04/18 06:45:26;;;;;;;17.90;17.20;;;8.00;33.90;;;;;;4952517;28;20593;-79
2022/04/18 06:47:52;;;;;;;18.40;17.30;;;8.00;30.80;;;;;;4953060;28;20199;-79
2022/04/18 06:50:18;;;;;;;18.90;17.60;;;8.10;32.50;;;;;;4965677;28;20456;-79
2022/04/18 06:52:46;;;;;;;18.13;17.13;;;8.10;30.00;;;;;;4972501;28;20242;-79
2022/04/18 06:55:12;;;;;;;17.80;17.00;;;8.20;32.20;;;;;;4971796;28;20189;-79
2022/04/18 06:57:38;;;;;;;17.60;16.90;;;8.30;30.00;;;;;;4971946;28;20553;-79
2022/04/18 07:00:05;;;;;;;17.93;17.13;;;8.30;31.00;;;;;;4971947;28;20509;-78
2022/04/18 07:02:31;;;;;;;17.70;16.90;;;8.50;31.20;;;;;;4972047;28;20446;-80
2022/04/18 07:04:57;;;;;;;17.70;16.90;;;8.50;30.60;;;;;;4971662;28;20414;-80
2022/04/18 07:07:22;;;;;;;17.50;16.63;;;8.60;31.30;;;;;;4973411;28;20418;-79
2022/04/18 07:09:48;;;;;;;18.07;17.07;;;8.70;28.90;;;;;;4971758;28;20194;-79
2022/04/18 07:12:14;;;;;;;17.60;16.83;;;8.80;29.20;;;;;;4971928;28;20547;-79
2022/04/18 07:14:39;;;;;;;18.43;17.60;;;8.90;29.50;;;;;;4971755;28;20183;-79
2022/04/18 07:17:06;;;;;;;19.77;18.47;;;9.00;30.20;;;;;;4971904;28;20747;-80
2022/04/18 07:19:33;;;;;;;18.27;17.33;;;9.00;28.60;;;;;;4971746;28;20179;-80
2022/04/18 07:21:59;;;;;;;18.63;17.83;;;9.00;28.20;;;;;;4972443;28;20532;-79
2022/04/18 07:24:25;;;;;;;19.40;18.40;;;9.10;28.50;;;;;;4967658;28;20458;-82
2022/04/18 07:26:51;;;;;;;19.40;18.60;;;9.20;28.30;;;;;;4972226;28;20457;-80
2022/04/18 07:29:16;;;;;;;19.67;18.77;;;9.30;28.10;;;;;;4972219;28;20183;-79
2022/04/18 07:31:43;;;;;;;19.27;18.37;;;9.30;27.00;;;;;;4984579;28;20425;-79
2022/04/18 07:34:09;;;;;;;18.77;17.83;;;9.40;27.50;;;;;;4993765;28;20190;-80
2022/04/18 07:36:37;;;;;;;19.10;17.77;;;9.40;28.10;;;;;;4995100;28;20422;-79
2022/04/18 07:39:03;;;;;;;19.10;18.00;;;9.50;27.90;;;;;;4994830;28;20543;-79
2022/04/18 07:41:29;;;;;;;21.80;20.80;;;9.60;27.10;;;;;;4994889;28;20413;-80
2022/04/18 07:43:57;;;;;;;20.07;19.07;;;9.70;27.60;;;;;;4994972;28;20512;-81
2022/04/18 07:46:23;;;;;;;20.37;19.30;;;9.80;27.70;;;;;;4994719;28;20417;-80
2022/04/18 07:48:53;;;;;;;18.87;17.97;;;9.80;28.10;;;;;;4994728;28;20844;-79
2022/04/18 07:51:34;;;;;;;18.43;17.70;;;9.90;25.70;;;;;;4994822;28;20410;-80
2022/04/18 07:54:12;;;;;;;19.83;19.03;;;10.00;26.20;;;;;;4994809;28;20409;-80
2022/04/18 07:56:38;;;;;;;19.40;18.60;;;10.10;25.70;;;;;;4994356;28;20929;-80
2022/04/18 07:59:05;;;;;;;17.83;17.03;;;10.20;26.50;;;;;;4976250;28;20524;-81
2022/04/18 08:01:31;;;;;;;17.60;16.80;;;10.20;25.60;;;;;;4974911;28;20446;-80
2022/04/18 08:04:03;;;;;;;20.43;19.20;;;10.40;26.30;;;;;;4975114;28;20422;-80
2022/04/18 08:06:29;;;;;;;19.73;18.83;;;10.50;25.80;;;;;;4974785;28;20848;-80
2022/04/18 08:08:55;;;;;;;19.37;18.47;;;10.50;26.10;;;;;;4974190;28;20481;-80
2022/04/18 08:11:21;;;;;;;19.20;18.00;;;10.50;25.00;;;;;;4974634;28;20430;-79
2022/04/18 08:13:48;;;;;;;19.23;18.33;;;10.60;24.40;;;;;;4974824;28;20842;-80
2022/04/18 08:16:14;;;;;;;19.80;18.90;;;10.70;24.70;;;;;;4974689;28;20549;-79
2022/04/18 08:18:44;;;;;;;19.80;18.90;;;10.70;24.40;;;;;;4974806;28;20474;-79
2022/04/18 08:21:10;;;;;;;19.07;18.20;;;10.80;24.20;;;;;;4974503;28;20449;-80
2022/04/18 08:23:36;;;;;;;18.57;17.67;;;10.90;26.80;;;;;;4974103;28;20426;-80
2022/04/18 08:26:03;;;;;;;20.50;19.60;;;11.20;25.30;;;;;;4974989;28;20769;-79
2022/04/18 08:28:29;;;;;;;20.77;19.77;;;11.30;24.70;;;;;;4974732;28;20190;-79
2022/04/18 08:30:55;;;;;;;19.47;18.57;;;11.30;22.80;;;;;;4974412;28;20429;-79
2022/04/18 08:33:21;;;;;;;20.20;19.20;;;11.30;24.10;;;;;;4973116;28;20838;-79
2022/04/18 08:35:47;;;;;;;20.93;20.03;;;11.30;23.30;;;;;;4973644;28;20658;-80
2022/04/18 08:38:12;;;;;;;19.97;19.10;;;11.30;23.70;;;;;;4972930;28;20537;-79
2022/04/18 08:40:42;;;;;;;18.73;18.00;;;11.40;23.60;;;;;;4974550;28;20909;-81
2022/04/18 08:43:08;;;;;;;19.10;18.20;;;11.40;23.50;;;;;;4971063;28;20183;-79
2022/04/18 08:45:36;;;;;;;18.97;18.07;;;11.50;23.00;;;;;;4972349;28;20484;-79
2022/04/18 08:53:32;;;;;;;18.33;17.53;;;11.80;22.70;;;;;;4969639;28;20878;-80
2022/04/18 08:55:59;;;;;;;18.80;18.03;;;11.80;22.80;;;;;;4973954;28;20452;-79
2022/04/18 08:58:29;;;;;;;19.70;18.63;;;11.80;22.60;;;;;;4960404;28;20464;-79
2022/04/18 09:00:59;;;;;;;20.77;19.77;;;11.80;23.50;;;;;;4973747;28;20425;-79
2022/04/18 09:03:25;;;;;;;19.83;18.90;;;11.90;22.20;;;;;;4974038;28;20464;-80
2022/04/18 09:06:04;;;;;;;18.63;17.73;;;11.90;22.10;;;;;;4973768;28;20441;-80
2022/04/18 09:08:33;;;;;;;18.23;17.43;;;11.90;21.90;;;;;;4973776;28;20190;-80
2022/04/18 09:10:59;;;;;;;18.77;17.97;;;12.00;23.20;;;;;;4973592;28;20418;-80
2022/04/18 09:13:25;;;;;;;18.60;17.53;;;12.10;24.20;;;;;;4972936;28;20423;-79
2022/04/18 09:15:50;;;;;;;19.50;18.50;;;12.20;22.20;;;;;;4972454;28;20182;-79
2022/04/18 09:18:23;;;;;;;19.07;18.23;;;12.20;23.00;;;;;;4972460;28;20195;-79
2022/04/18 09:20:55;;;;;;;18.97;18.17;;;12.30;21.80;;;;;;4970443;28;20201;-80
2022/04/18 09:23:32;;;;;;;18.43;17.53;;;12.30;21.20;;;;;;4972424;28;20507;-80
2022/04/18 09:26:04;;;;;;;19.00;18.07;;;12.20;21.50;;;;;;4972425;28;20440;-79
2022/04/18 09:28:40;;;;;;;19.07;18.17;;;12.30;21.00;;;;;;4970358;28;20504;-79
2022/04/18 09:31:07;;;;;;;19.57;18.37;;;12.30;22.10;;;;;;4969795;28;20414;-79
2022/04/18 09:33:53;;;;;;;18.27;17.47;;;12.50;21.80;;;;;;4972116;28;20918;-80
2022/04/18 09:36:20;;;;;;;18.70;17.90;;;12.40;20.90;;;;;;4971276;28;20497;-79
2022/04/18 09:38:53;;;;;;;18.03;17.33;;;12.40;20.90;;;;;;4969672;28;20581;-79
2022/04/18 09:41:30;;;;;;;17.03;16.23;;;12.60;20.60;;;;;;4972455;28;20449;-78
2022/04/18 09:43:56;;;;;;;18.10;17.30;;;12.60;22.70;;;;;;4972472;28;20426;-78
2022/04/18 09:46:22;;;;;;;19.80;18.80;;;12.70;20.00;;;;;;4972948;28;20441;-80
2022/04/18 09:48:51;;;;;;;19.43;18.53;;;12.80;20.20;;;;;;4973999;28;20422;-79
2022/04/18 09:51:22;;;;;;;20.77;19.63;;;12.90;21.40;;;;;;4975372;28;20418;-79
2022/04/18 09:53:52;;;;;;;19.47;18.60;;;12.90;21.10;;;;;;4975579;28;20894;-79
2022/04/18 09:56:22;;;;;;;19.80;19.00;;;13.00;20.40;;;;;;4973823;28;20846;-81
2022/04/18 09:58:48;;;;;;;18.67;17.57;;;13.00;20.20;;;;;;4972874;28;20472;-79
2022/04/18 10:01:16;;;;;;;20.47;18.70;;;13.10;19.50;;;;;;4972581;28;20413;-80
2022/04/18 10:03:43;;;;;;;18.87;18.07;;;13.20;19.40;;;;;;4972553;28;20917;-79
2022/04/18 10:06:10;;;;;;;19.13;18.33;;;13.40;19.40;;;;;;4971785;28;20446;-79
2022/04/18 10:08:37;;;;;;;18.67;17.87;;;13.30;18.80;;;;;;4972241;28;20445;-79
2022/04/18 10:11:08;;;;;;;18.67;17.87;;;13.40;18.80;;;;;;4972441;28;20500;-79
2022/04/18 10:13:35;;;;;;;18.67;17.83;;;13.40;18.70;;;;;;4972190;28;20417;-78
2022/04/18 10:16:01;;;;;;;19.03;18.10;;;13.60;17.80;;;;;;4972066;28;20441;-79
2022/04/18 10:18:28;;;;;;;19.23;18.33;;;13.80;18.20;;;;;;4970458;28;20461;-82
2022/04/18 10:21:15;;;;;;;19.57;18.57;;;13.80;17.80;;;;;;4973425;28;20410;-82
2022/04/18 10:24:07;;;;;;;19.10;18.27;;;13.80;18.00;;;;;;4968538;28;20781;-82
2022/04/18 10:26:51;;;;;;;19.90;19.10;;;13.90;18.20;;;;;;4972862;28;20413;-83
2022/04/18 10:29:26;;;;;;;19.10;18.20;;;14.00;18.50;;;;;;4971851;28;20523;-82
2022/04/18 10:31:53;;;;;;;19.00;18.20;;;14.00;18.70;;;;;;4972131;28;20424;-81
2022/04/18 10:34:23;;;;;;;19.60;18.60;;;14.10;18.30;;;;;;4967139;28;20422;-81
2022/04/18 10:36:54;;;;;;;19.83;19.03;;;14.30;17.80;;;;;;4971292;28;20501;-83
2022/04/18 10:39:21;;;;;;;18.93;18.13;;;14.30;17.70;;;;;;4970212;28;20993;-81
2022/04/18 10:41:48;;;;;;;19.67;18.63;;;14.40;17.90;;;;;;4970168;28;20426;-82
2022/04/18 10:44:16;;;;;;;18.93;18.13;;;14.40;17.10;;;;;;4969535;28;20473;-83
2022/04/18 10:46:55;;;;;;;19.10;18.20;;;14.40;17.50;;;;;;4970285;28;20406;-79
2022/04/18 10:49:30;;;;;;;19.40;18.50;;;14.40;17.90;;;;;;4969611;28;20421;-81
2022/04/18 10:51:57;;;;;;;20.17;19.07;;;14.40;17.40;;;;;;4970250;28;20487;-81
2022/04/18 10:54:29;;;;;;;20.43;19.33;;;14.40;17.90;;;;;;4969995;28;20425;-83
2022/04/18 10:57:11;;;;;;;19.33;18.53;;;14.50;17.30;;;;;;4969753;28;20426;-80
2022/04/18 10:59:42;;;;;;;19.10;18.30;;;14.50;17.70;;;;;;4970970;28;20458;-80
2022/04/18 11:02:29;;;;;;;18.50;17.70;;;14.60;17.10;;;;;;4970816;28;20826;-81
2022/04/18 11:04:55;;;;;;;19.23;18.07;;;14.70;17.50;;;;;;4969028;28;20418;-80
2022/04/18 11:07:40;;;;;;;19.23;18.43;;;14.80;17.20;;;;;;4972712;28;20529;-83
2022/04/18 11:10:26;;;;;;;17.97;17.20;;;14.90;16.40;;;;;;4974784;28;20191;-83
2022/04/18 11:12:59;;;;;;;18.83;17.87;;;14.80;16.70;;;;;;4975405;28;20766;-83
2022/04/18 11:15:27;;;;;;;18.70;17.43;;;14.70;16.40;;;;;;4975049;28;20430;-82
2022/04/18 11:17:53;;;;;;;18.00;17.30;;;14.60;17.20;;;;;;4975249;28;20465;-81
2022/04/18 11:20:35;;;;;;;18.23;17.53;;;14.70;17.10;;;;;;4974783;28;20465;-81
2022/04/18 11:23:23;;;;;;;18.10;17.40;;;14.80;17.40;;;;;;4975387;28;20182;-81
2022/04/18 11:25:50;;;;;;;17.83;17.13;;;14.90;16.70;;;;;;4975572;28;20429;-81
2022/04/18 11:28:17;;;;;;;17.87;17.00;;;15.10;16.60;;;;;;4976039;28;20417;-82
2022/04/18 11:30:43;;;;;;;20.17;19.10;;;15.20;16.30;;;;;;4974736;28;20937;-83
2022/04/18 11:33:08;;;;;;;18.90;17.70;;;15.20;15.70;;;;;;4977043;28;20446;-83
2022/04/18 11:35:34;;;;;;;18.17;17.27;;;15.10;15.90;;;;;;4975516;28;20210;-83
2022/04/18 11:38:07;;;;;;;23.00;18.73;;;15.20;16.60;;;;;;4975472;28;20203;-80
2022/04/18 11:40:37;;;;;;;18.40;17.40;;;15.30;15.90;;;;;;4974992;28;20469;-79
2022/04/18 11:43:29;;;;;;;19.60;18.60;;;15.40;17.40;;;;;;4974752;28;20512;-79
2022/04/18 11:46:03;;;;;;;18.50;17.53;;;15.40;16.60;;;;;;4971107;28;20450;-80
2022/04/18 11:48:29;;;;;;;19.13;18.23;;;15.60;16.30;;;;;;4973298;28;20963;-79
2022/04/18 11:50:55;;;;;;;18.00;17.10;;;15.60;15.90;;;;;;4973719;28;20426;-80
2022/04/18 11:53:20;;;;;;;19.03;18.17;;;15.60;16.00;;;;;;4974185;28;20227;-79
2022/04/18 11:55:50;;;;;;;19.00;18.20;;;15.70;15.50;;;;;;4990144;28;20189;-81
2022/04/18 11:58:21;;;;;;;18.67;17.77;;;15.70;14.30;;;;;;4974476;28;20614;-80
2022/04/18 12:09:33;;;;;;;18.47;17.67;;;16.00;15.10;;;;;;4975827;28;20853;-81
2022/04/18 12:11:59;;;;;;;17.83;17.13;;;16.10;16.40;;;;;;4965943;28;20461;-80
2022/04/18 12:14:29;;;;;;;17.20;16.40;;;16.00;14.70;;;;;;4974175;28;20422;-81
2022/04/18 12:16:59;;;;;;;17.67;16.97;;;16.10;15.50;;;;;;4974269;28;20426;-80
2022/04/18 12:19:28;;;;;;;17.63;16.93;;;16.10;14.10;;;;;;4973284;28;20465;-80
2022/04/18 12:21:55;;;;;;;17.63;16.83;;;16.10;17.10;;;;;;4975476;28;20414;-80
2022/04/18 12:24:21;;;;;;;18.00;17.30;;;16.10;15.20;;;;;;4974029;28;20478;-80
2022/04/18 12:26:51;;;;;;;17.90;17.17;;;16.30;14.70;;;;;;4974322;28;20426;-80
2022/04/18 12:29:19;;;;;;;17.20;16.50;;;16.20;14.60;;;;;;4974231;28;20182;-79
2022/04/18 12:31:45;;;;;;;17.50;16.80;;;16.10;15.30;;;;;;4974226;28;20949;-79
2022/04/18 12:34:21;;;;;;;18.00;17.20;;;16.10;14.20;;;;;;4973771;28;20422;-80
2022/04/18 12:37:01;;;;;;;17.80;16.90;;;16.10;14.80;;;;;;4974172;28;20186;-80
2022/04/18 12:39:27;;;;;;;18.00;17.10;;;16.20;14.70;;;;;;4973916;28;20470;-80
2022/04/18 12:42:03;;;;;;;17.60;16.90;;;16.30;14.50;;;;;;4973688;28;20961;-81
2022/04/18 12:44:29;;;;;;;17.93;17.13;;;16.40;14.70;;;;;;4973505;28;20544;-80
2022/04/18 12:46:55;;;;;;;17.60;16.70;;;16.40;14.10;;;;;;4973659;28;20505;-80
2022/04/18 12:49:20;;;;;;;16.57;15.97;;;16.20;14.10;;;;;;4973532;28;20183;-79
2022/04/18 12:51:51;;;;;;;16.53;15.90;;;16.30;14.00;;;;;;4989802;28;20194;-79
2022/04/18 12:54:24;;;;;;;17.40;16.70;;;16.30;13.10;;;;;;4973701;28;20263;-80
2022/04/18 12:56:51;;;;;;;18.60;17.80;;;16.30;13.90;;;;;;4973525;28;20533;-83
2022/04/18 12:59:28;;;;;;;18.13;17.33;;;16.20;13.90;;;;;;4973870;28;20852;-82